createdAt,value
2023-05-07T00:01:12.266Z,18.80
2023-05-07T00:03:43.096Z,17.50
2023-05-07T00:06:13.876Z,18.80
2023-05-07T00:08:43.996Z,18.80
2023-05-07T00:11:14.072Z,18.80
2023-05-07T00:13:47.155Z,18.90
2023-05-07T00:16:17.280Z,18.90
2023-05-07T00:18:47.412Z,19.00
2023-05-07T00:21:17.733Z,19.00
2023-05-07T00:23:47.834Z,18.90
2023-05-07T00:26:18.125Z,18.80
2023-05-07T00:28:50.937Z,18.80
2023-05-07T00:31:21.048Z,19.50
2023-05-07T00:33:51.191Z,18.90
2023-05-07T00:36:21.273Z,18.90
2023-05-07T00:38:51.543Z,18.90
2023-05-07T00:41:21.636Z,18.80
2023-05-07T00:43:54.993Z,18.80
2023-05-07T00:46:25.829Z,18.90
2023-05-07T00:48:56.251Z,18.80
2023-05-07T00:51:26.168Z,18.80
2023-05-07T00:53:56.330Z,18.80
2023-05-07T00:56:27.521Z,18.80
2023-05-07T00:59:00.500Z,18.90
2023-05-07T01:01:31.091Z,18.80
2023-05-07T01:04:01.678Z,18.80
2023-05-07T01:06:33.577Z,18.80
2023-05-07T01:09:05.852Z,18.80
2023-05-07T01:11:36.085Z,18.70
2023-05-07T01:14:09.521Z,18.70
2023-05-07T01:16:41.852Z,18.70
2023-05-07T01:19:12.902Z,18.80
2023-05-07T01:21:47.060Z,18.80
2023-05-07T01:24:20.206Z,18.80
2023-05-07T01:26:50.284Z,18.80
2023-05-07T01:29:20.405Z,18.80
2023-05-07T01:31:51.837Z,18.70
2023-05-07T01:34:24.501Z,18.70
2023-05-07T01:36:56.515Z,18.70
2023-05-07T01:39:30.306Z,18.60
2023-05-07T01:42:00.824Z,18.70
2023-05-07T01:44:31.842Z,18.70
2023-05-07T01:47:02.682Z,18.60
2023-05-07T01:49:32.986Z,18.50
2023-05-07T01:52:03.199Z,16.90
2023-05-07T01:54:36.245Z,18.30
2023-05-07T01:57:06.497Z,18.30
2023-05-07T01:59:36.769Z,18.40
2023-05-07T02:02:07.129Z,18.40
2023-05-07T02:04:37.852Z,18.40
2023-05-07T02:07:08.134Z,18.40
2023-05-07T02:09:40.888Z,18.30
2023-05-07T02:12:11.354Z,18.50
2023-05-07T02:14:41.550Z,18.50
2023-05-07T02:17:12.056Z,18.50
2023-05-07T02:19:42.361Z,18.40
2023-05-07T02:22:14.752Z,18.40
2023-05-07T02:24:47.469Z,18.40
2023-05-07T02:27:17.546Z,18.40
2023-05-07T02:29:47.694Z,18.40
2023-05-07T02:32:18.943Z,18.50
2023-05-07T02:34:49.359Z,18.50
2023-05-07T02:37:19.394Z,18.40
2023-05-07T02:39:52.259Z,18.30
2023-05-07T02:42:22.317Z,18.40
2023-05-07T02:44:52.468Z,18.60
2023-05-07T02:47:24.639Z,18.60
2023-05-07T02:49:54.753Z,18.60
2023-05-07T02:52:24.897Z,18.60
2023-05-07T02:54:57.720Z,18.60
2023-05-07T02:57:27.838Z,17.30
2023-05-07T02:59:58.002Z,18.50
2023-05-07T03:02:28.466Z,18.50
2023-05-07T03:04:58.858Z,18.60
2023-05-07T03:07:31.818Z,18.70
2023-05-07T03:10:04.565Z,18.70
2023-05-07T03:12:35.135Z,18.60
2023-05-07T03:15:05.393Z,18.50
2023-05-07T03:17:35.524Z,18.40
2023-05-07T03:20:05.847Z,18.40
2023-05-07T03:22:36.024Z,18.50
2023-05-07T03:25:09.995Z,18.50
2023-05-07T03:27:40.127Z,18.50
2023-05-07T03:30:12.260Z,18.50
2023-05-07T03:32:42.579Z,18.50
2023-05-07T03:35:12.950Z,18.50
2023-05-07T03:37:43.195Z,18.60
2023-05-07T03:40:16.281Z,18.40
2023-05-07T03:42:46.390Z,18.30
2023-05-07T03:45:16.694Z,18.20
2023-05-07T03:47:47.086Z,18.20
2023-05-07T03:50:17.401Z,18.30
2023-05-07T03:52:47.476Z,18.30
2023-05-07T03:55:20.337Z,18.20
2023-05-07T03:57:50.425Z,18.10
2023-05-07T04:00:21.497Z,18.10
2023-05-07T04:02:51.769Z,18.10
2023-05-07T04:05:22.121Z,18.30
2023-05-07T04:07:52.169Z,18.30
2023-05-07T04:10:24.931Z,18.30
2023-05-07T04:12:55.238Z,18.40
2023-05-07T04:15:25.358Z,18.40
2023-05-07T04:17:55.513Z,18.50
2023-05-07T04:20:25.681Z,18.40
2023-05-07T04:22:55.829Z,18.40
2023-05-07T04:25:29.344Z,18.30
2023-05-07T04:27:59.852Z,18.50
2023-05-07T04:30:30.062Z,18.50
2023-05-07T04:33:00.273Z,18.60
2023-05-07T04:35:30.676Z,18.60
2023-05-07T04:38:01.042Z,18.60
2023-05-07T04:40:33.962Z,18.60
2023-05-07T04:43:04.082Z,18.60
2023-05-07T04:45:34.485Z,18.60
2023-05-07T04:48:04.670Z,18.50
2023-05-07T04:50:34.865Z,18.40
2023-05-07T04:53:05.173Z,18.50
2023-05-07T04:55:38.052Z,18.60
2023-05-07T04:58:08.152Z,18.70
2023-05-07T05:00:38.320Z,20.00
2023-05-07T05:05:39.266Z,18.70
2023-05-07T05:08:09.500Z,18.60
2023-05-07T05:10:42.841Z,18.60
2023-05-07T05:13:14.111Z,18.70
2023-05-07T05:15:44.344Z,18.80
2023-05-07T05:18:15.336Z,18.80
2023-05-07T05:20:45.933Z,18.70
2023-05-07T05:23:16.151Z,18.70
2023-05-07T05:25:48.877Z,18.80
2023-05-07T05:28:18.990Z,18.80
2023-05-07T05:30:49.060Z,18.70
2023-05-07T05:33:19.559Z,18.70
2023-05-07T05:35:49.742Z,18.70
2023-05-07T05:38:19.907Z,18.70
2023-05-07T05:43:27.131Z,18.80
2023-05-07T05:45:57.475Z,18.90
2023-05-07T05:48:27.751Z,18.90
2023-05-07T05:50:57.954Z,18.90
2023-05-07T05:53:28.306Z,18.80
2023-05-07T05:56:01.117Z,18.90
2023-05-07T05:58:31.366Z,18.90
2023-05-07T06:01:03.827Z,19.00
2023-05-07T06:03:33.951Z,18.80
2023-05-07T06:06:04.242Z,18.90
2023-05-07T06:08:34.441Z,19.00
2023-05-07T06:11:07.328Z,19.00
2023-05-07T06:13:37.484Z,19.10
2023-05-07T06:16:08.603Z,19.50
2023-05-07T06:18:38.833Z,21.30
2023-05-07T06:21:09.228Z,19.90
2023-05-07T06:23:40.723Z,20.00
2023-05-07T06:26:13.673Z,19.70
2023-05-07T06:28:43.752Z,19.80
2023-05-07T06:31:18.722Z,19.80
2023-05-07T06:33:49.247Z,19.70
2023-05-07T06:36:19.470Z,19.70
2023-05-07T06:38:49.644Z,19.70
2023-05-07T06:41:22.821Z,19.60
2023-05-07T06:43:52.950Z,19.60
2023-05-07T06:46:23.163Z,19.40
2023-05-07T06:48:53.847Z,19.50
2023-05-07T06:51:24.040Z,19.60
2023-05-07T06:53:54.136Z,19.70
2023-05-07T06:56:27.027Z,19.90
2023-05-07T06:58:57.161Z,19.90
2023-05-07T07:01:27.401Z,20.10
2023-05-07T07:03:57.524Z,20.20
2023-05-07T07:06:28.209Z,20.40
2023-05-07T07:08:58.024Z,20.40
2023-05-07T07:11:30.867Z,20.50
2023-05-07T07:14:00.933Z,20.30
2023-05-07T07:16:31.220Z,20.40
2023-05-07T07:19:01.413Z,20.70
2023-05-07T07:21:32.107Z,20.60
2023-05-07T07:24:02.223Z,20.70
2023-05-07T07:26:35.234Z,20.70
2023-05-07T07:29:05.342Z,20.70
2023-05-07T07:31:35.484Z,20.70
2023-05-07T07:34:06.057Z,20.70
2023-05-07T07:36:45.705Z,20.60
2023-05-07T07:39:17.182Z,20.90
2023-05-07T07:41:49.894Z,21.00
2023-05-07T07:44:19.965Z,21.10
2023-05-07T07:49:21.205Z,21.20
2023-05-07T07:51:52.446Z,21.50
2023-05-07T07:54:22.499Z,21.30
2023-05-07T07:56:55.395Z,21.50
2023-05-07T07:59:25.456Z,21.40
2023-05-07T08:01:58.126Z,21.40
2023-05-07T08:04:28.437Z,21.10
2023-05-07T08:06:58.976Z,21.00
2023-05-07T08:09:29.053Z,21.20
2023-05-07T08:12:02.330Z,21.20
2023-05-07T08:14:32.501Z,21.10
2023-05-07T08:17:02.742Z,21.20
2023-05-07T08:19:32.851Z,21.30
2023-05-07T08:22:03.133Z,21.40
2023-05-07T08:24:33.213Z,21.50
2023-05-07T08:27:06.011Z,21.70
2023-05-07T08:29:36.843Z,20.10
2023-05-07T08:32:07.446Z,21.50
2023-05-07T08:34:37.269Z,21.50
2023-05-07T08:37:07.340Z,21.60
2023-05-07T08:39:37.457Z,21.50
2023-05-07T08:42:12.747Z,21.70
2023-05-07T08:44:43.686Z,21.80
2023-05-07T08:47:14.431Z,21.90
2023-05-07T08:49:44.708Z,22.00
2023-05-07T08:52:16.132Z,22.00
2023-05-07T08:54:47.014Z,22.10
2023-05-07T08:57:21.108Z,21.90
2023-05-07T08:59:51.318Z,22.20
2023-05-07T09:02:22.147Z,22.30
2023-05-07T09:04:52.549Z,22.50
2023-05-07T09:07:23.585Z,22.50
2023-05-07T09:09:53.924Z,22.30
2023-05-07T09:12:26.670Z,22.00
2023-05-07T09:14:56.812Z,21.90
2023-05-07T09:17:26.993Z,21.40
2023-05-07T09:19:57.498Z,21.40
2023-05-07T09:22:27.574Z,21.80
2023-05-07T09:24:57.741Z,22.00
2023-05-07T09:27:30.746Z,22.20
2023-05-07T09:30:01.043Z,22.30
2023-05-07T09:32:31.836Z,22.10
2023-05-07T09:35:02.538Z,22.30
2023-05-07T09:37:34.599Z,22.30
2023-05-07T09:40:04.839Z,21.30
2023-05-07T09:42:37.686Z,22.30
2023-05-07T09:45:10.781Z,22.30
2023-05-07T09:47:48.411Z,22.20
2023-05-07T09:50:20.346Z,22.40
2023-05-07T09:52:50.882Z,22.40
2023-05-07T09:55:20.893Z,22.40
2023-05-07T09:57:55.291Z,22.30
2023-05-07T10:00:26.558Z,22.20
2023-05-07T10:02:58.584Z,22.40
2023-05-07T10:05:30.267Z,22.00
2023-05-07T10:08:03.926Z,21.80
2023-05-07T10:10:36.893Z,22.60
2023-05-07T10:13:12.003Z,21.90
2023-05-07T10:15:42.524Z,22.00
2023-05-07T10:18:13.425Z,21.80
2023-05-07T10:20:45.830Z,22.20
2023-05-07T10:23:23.381Z,22.10
2023-05-07T10:26:00.457Z,21.80
2023-05-07T10:28:38.328Z,21.50
2023-05-07T10:31:22.807Z,21.50
2023-05-07T10:33:56.169Z,21.80
2023-05-07T10:36:27.895Z,21.80
2023-05-07T10:38:59.000Z,21.80
2023-05-07T10:41:29.170Z,21.90
2023-05-07T10:44:03.308Z,21.70
2023-05-07T10:46:36.683Z,21.90
2023-05-07T10:49:14.214Z,21.90
2023-05-07T10:51:47.185Z,22.00
2023-05-07T10:54:25.098Z,21.70
2023-05-07T20:35:44.067Z,22.40
2023-05-07T20:38:14.268Z,21.70
2023-05-07T20:40:44.455Z,21.40
2023-05-07T20:45:44.924Z,21.50
2023-05-07T20:48:15.124Z,20.60
2023-05-07T20:50:47.790Z,20.80
2023-05-07T20:58:18.886Z,21.80
2023-05-07T21:03:19.655Z,20.80
2023-05-07T21:05:57.872Z,21.80
2023-05-07T21:08:28.031Z,20.60
2023-05-07T21:10:59.460Z,20.90
2023-05-07T21:13:29.828Z,20.40
2023-05-07T21:15:59.963Z,21.00
2023-05-07T21:18:31.086Z,20.70
2023-05-07T21:21:03.808Z,20.70
2023-05-07T21:23:34.082Z,20.60
2023-05-07T21:26:04.151Z,19.00
2023-05-07T21:28:34.502Z,21.60
2023-05-07T21:33:35.150Z,21.50
2023-05-07T21:36:08.757Z,21.80
2023-05-07T21:38:39.668Z,20.20
2023-05-07T21:41:10.042Z,21.90
2023-05-07T21:46:10.617Z,19.90
2023-05-07T21:48:41.383Z,21.00
2023-05-07T21:51:13.796Z,20.40
2023-05-07T21:53:44.490Z,19.90
2023-05-07T21:56:14.295Z,20.30
2023-05-07T21:58:44.534Z,21.20
2023-05-07T22:01:14.678Z,18.50
2023-05-07T22:03:45.081Z,19.00
2023-05-07T22:06:21.838Z,20.50
2023-05-07T22:08:52.663Z,21.60
2023-05-07T22:11:22.482Z,20.20
2023-05-07T22:13:52.610Z,21.10
2023-05-07T22:18:53.128Z,20.60
2023-05-07T22:21:25.846Z,18.60
2023-05-07T22:28:56.880Z,20.10
2023-05-07T22:33:57.365Z,20.00
2023-05-07T22:36:30.360Z,20.30
2023-05-07T22:39:01.746Z,20.60
2023-05-07T22:41:31.858Z,20.30
2023-05-07T22:44:02.022Z,19.40
2023-05-07T22:46:32.277Z,20.50
2023-05-07T22:49:02.513Z,19.40
2023-05-07T22:51:35.318Z,20.00
2023-05-07T22:54:05.873Z,18.20
2023-05-07T22:56:36.048Z,20.50
2023-05-07T22:59:06.457Z,20.50
2023-05-07T23:01:36.754Z,19.80
2023-05-07T23:06:39.906Z,20.00
2023-05-07T23:11:40.491Z,19.70
2023-05-07T23:14:10.721Z,21.20
2023-05-07T23:16:40.792Z,19.40
2023-05-07T23:19:11.800Z,20.40
2023-05-07T23:21:44.536Z,19.90
2023-05-07T23:24:14.709Z,19.00
2023-05-07T23:26:44.943Z,20.20
2023-05-07T23:29:15.211Z,18.80
2023-05-07T23:31:45.454Z,19.70
2023-05-07T23:34:16.034Z,21.20
2023-05-07T23:36:48.846Z,20.00
2023-05-07T23:39:19.058Z,20.30
2023-05-07T23:44:19.688Z,19.50
2023-05-07T23:46:49.977Z,19.80
2023-05-07T23:49:20.200Z,19.30
2023-05-07T23:51:52.908Z,19.30
2023-05-07T23:54:23.317Z,18.20
2023-05-07T23:59:23.784Z,20.60
